createdAt,value
2016-08-14T00:00:26.736Z,15
2016-08-14T00:01:26.827Z,15.04
2016-08-14T00:02:26.886Z,14.98
2016-08-14T00:03:26.906Z,15
2016-08-14T00:04:26.831Z,15.02
2016-08-14T00:05:26.846Z,14.95
2016-08-14T00:06:26.822Z,15.15
2016-08-14T00:07:26.832Z,15.08
2016-08-14T00:08:26.852Z,15.08
2016-08-14T00:09:26.845Z,14.98
2016-08-14T00:10:26.765Z,15.12
2016-08-14T00:11:26.773Z,15
2016-08-14T00:12:26.781Z,14.98
2016-08-14T00:13:26.847Z,15.02
2016-08-14T00:14:26.868Z,15.16
2016-08-14T00:15:26.938Z,15.16
2016-08-14T00:16:26.779Z,15.2
2016-08-14T00:17:26.871Z,15.15
2016-08-14T00:18:26.932Z,15.08
2016-08-14T00:19:26.793Z,14.98
2016-08-14T00:20:26.961Z,14.97
2016-08-14T00:21:26.805Z,15.07
2016-08-14T00:22:26.794Z,15.12
2016-08-14T00:23:26.871Z,15.08
2016-08-14T00:24:26.956Z,15.08
2016-08-14T00:25:26.886Z,15.19
2016-08-14T00:26:26.896Z,15.26
2016-08-14T00:27:26.966Z,15.2
2016-08-14T00:28:26.893Z,15.23
2016-08-14T00:29:26.891Z,15.34
2016-08-14T00:30:26.840Z,15.3
2016-08-14T00:31:26.983Z,15.34
2016-08-14T00:32:26.908Z,15.27
2016-08-14T00:33:26.837Z,15.31
2016-08-14T00:34:26.906Z,15.31
2016-08-14T00:35:26.845Z,15.34
2016-08-14T00:36:26.906Z,15.25
2016-08-14T00:37:26.925Z,15.23
2016-08-14T00:38:27.093Z,15.3
2016-08-14T00:39:26.999Z,15.23
2016-08-14T00:40:26.927Z,15.19
2016-08-14T00:41:26.867Z,15.19
2016-08-14T00:42:26.938Z,15.13
2016-08-14T00:43:26.934Z,15.18
2016-08-14T00:44:27.009Z,15.08
2016-08-14T00:45:26.937Z,15.16
2016-08-14T00:46:27.072Z,15.23
2016-08-14T00:47:26.946Z,15.19
2016-08-14T00:48:26.870Z,15.15
2016-08-14T00:49:26.875Z,15.22
2016-08-14T00:50:27.036Z,15.19
2016-08-14T00:51:26.949Z,15.07
2016-08-14T00:52:27.047Z,15.08
2016-08-14T00:53:26.966Z,15.15
2016-08-14T00:54:26.955Z,15.1
2016-08-14T00:55:26.965Z,15.08
2016-08-14T00:56:26.990Z,15.12
2016-08-14T00:57:26.978Z,15.1
2016-08-14T00:58:26.894Z,15.33
2016-08-14T00:59:26.971Z,15.31
2016-08-14T01:00:26.979Z,15.34
2016-08-14T01:01:26.993Z,15.38
2016-08-14T01:02:26.914Z,15.27
2016-08-14T01:03:27.064Z,15.31
2016-08-14T01:04:26.917Z,15.26
2016-08-14T01:05:26.993Z,15.25
2016-08-14T01:06:27.083Z,15.25
2016-08-14T01:07:27.083Z,15.27
2016-08-14T01:08:26.937Z,15.27
2016-08-14T01:09:27.097Z,15.26
2016-08-14T01:10:26.938Z,15.16
2016-08-14T01:11:26.944Z,15.38
2016-08-14T01:12:27.015Z,15.35
2016-08-14T01:13:27.015Z,15.34
2016-08-14T01:14:27.107Z,15.44
2016-08-14T01:15:27.022Z,15.52
2016-08-14T01:16:26.954Z,15.62
2016-08-14T01:17:27.028Z,15.7
2016-08-14T01:18:27.123Z,15.78
2016-08-14T01:19:27.115Z,15.75
2016-08-14T01:20:27.124Z,15.73
2016-08-14T01:21:27.108Z,15.8
2016-08-14T01:22:27.043Z,15.7
2016-08-14T01:23:27.128Z,15.7
2016-08-14T01:24:27.056Z,15.52
2016-08-14T01:25:27.128Z,15.47
2016-08-14T01:26:27.125Z,15.45
2016-08-14T01:27:27.069Z,15.49
2016-08-14T01:28:27.146Z,15.4
2016-08-14T01:29:27.149Z,15.4
2016-08-14T01:30:27.066Z,15.4
2016-08-14T01:31:26.993Z,15.56
2016-08-14T01:32:27.002Z,15.62
2016-08-14T01:33:27.172Z,15.65
2016-08-14T01:34:27.082Z,15.67
2016-08-14T01:35:27.080Z,15.71
2016-08-14T01:36:27.093Z,15.74
2016-08-14T01:37:27.096Z,15.6
2016-08-14T01:38:27.229Z,15.58
2016-08-14T01:39:27.094Z,15.58
2016-08-14T01:40:27.167Z,15.45
2016-08-14T01:41:27.181Z,15.55
2016-08-14T01:42:27.163Z,15.59
2016-08-14T01:43:27.121Z,15.63
2016-08-14T01:44:27.113Z,15.73
2016-08-14T01:45:27.027Z,15.68
2016-08-14T01:46:27.027Z,15.74
2016-08-14T01:47:27.199Z,15.7
2016-08-14T01:48:27.113Z,15.58
2016-08-14T01:49:27.038Z,15.62
2016-08-14T01:50:27.128Z,15.63
2016-08-14T01:51:27.232Z,15.59
2016-08-14T01:52:27.207Z,15.53
2016-08-14T01:53:27.220Z,15.63
2016-08-14T01:54:27.143Z,15.53
2016-08-14T01:55:27.214Z,15.59
2016-08-14T01:56:27.152Z,15.6
2016-08-14T01:57:27.145Z,15.59
2016-08-14T01:58:27.232Z,15.62
2016-08-14T01:59:27.102Z,15.56
2016-08-14T02:00:27.075Z,15.55
2016-08-14T02:01:27.148Z,15.56
2016-08-14T02:02:27.097Z,15.47
2016-08-14T02:03:27.165Z,15.53
2016-08-14T02:04:27.233Z,15.52
2016-08-14T02:05:27.102Z,15.41
2016-08-14T02:06:27.103Z,15.43
2016-08-14T02:07:27.181Z,15.52
2016-08-14T02:08:27.255Z,15.73
2016-08-14T02:09:27.255Z,15.7
2016-08-14T02:10:27.130Z,15.67
2016-08-14T02:11:27.259Z,15.62
2016-08-14T02:12:27.201Z,15.59
2016-08-14T02:13:27.269Z,15.63
2016-08-14T02:14:27.217Z,15.59
2016-08-14T02:15:27.268Z,15.65
2016-08-14T02:16:27.219Z,15.56
2016-08-14T02:17:27.123Z,15.34
2016-08-14T02:18:27.149Z,15.65
2016-08-14T02:19:27.293Z,15.63
2016-08-14T02:20:27.228Z,15.63
2016-08-14T02:21:27.142Z,15.63
2016-08-14T02:22:27.235Z,15.59
2016-08-14T02:23:27.229Z,15.56
2016-08-14T02:24:27.312Z,15.58
2016-08-14T02:25:27.243Z,15.52
2016-08-14T02:26:27.307Z,15.59
2016-08-14T02:27:27.225Z,15.62
2016-08-14T02:28:27.167Z,15.53
2016-08-14T02:29:27.241Z,15.6
2016-08-14T02:30:27.176Z,15.58
2016-08-14T02:31:27.248Z,15.56
2016-08-14T02:32:27.244Z,15.6
2016-08-14T02:33:27.318Z,15.49
2016-08-14T02:34:27.240Z,15.6
2016-08-14T02:35:27.320Z,15.62
2016-08-14T02:36:27.274Z,15.55
2016-08-14T02:37:27.337Z,15.62
2016-08-14T02:38:27.192Z,15.55
2016-08-14T02:39:27.265Z,15.62
2016-08-14T02:40:27.260Z,15.6
2016-08-14T02:41:27.282Z,15.58
2016-08-14T02:42:27.347Z,15.58
2016-08-14T02:43:27.287Z,15.56
2016-08-14T02:44:27.276Z,15.58
2016-08-14T02:45:27.390Z,15.62
2016-08-14T02:46:27.204Z,15.63
2016-08-14T02:47:27.208Z,15.71
2016-08-14T02:48:27.292Z,15.68
2016-08-14T02:49:27.321Z,15.73
2016-08-14T02:50:27.367Z,15.77
2016-08-14T02:51:27.308Z,15.81
2016-08-14T02:52:27.303Z,15.73
2016-08-14T02:53:27.300Z,15.78
2016-08-14T02:54:27.306Z,15.68
2016-08-14T02:55:27.239Z,15.67
2016-08-14T02:56:27.314Z,15.67
2016-08-14T02:57:27.243Z,15.63
2016-08-14T02:58:27.383Z,15.7
2016-08-14T02:59:27.330Z,15.73
2016-08-14T03:00:27.256Z,15.68
2016-08-14T03:01:27.334Z,15.75
2016-08-14T03:02:27.271Z,15.67
2016-08-14T03:03:27.415Z,15.67
2016-08-14T03:04:27.267Z,15.7
2016-08-14T03:05:27.338Z,15.75
2016-08-14T03:06:27.266Z,15.75
2016-08-14T03:07:27.410Z,15.68
2016-08-14T03:08:27.428Z,15.59
2016-08-14T03:09:27.274Z,15.67
2016-08-14T03:10:27.418Z,15.74
2016-08-14T03:11:27.354Z,15.73
2016-08-14T03:12:27.350Z,15.77
2016-08-14T03:13:27.283Z,15.63
2016-08-14T03:14:27.368Z,15.71
2016-08-14T03:15:27.361Z,15.68
2016-08-14T03:16:27.458Z,15.65
2016-08-14T03:17:27.297Z,15.71
2016-08-14T03:18:27.457Z,15.63
2016-08-14T03:19:27.373Z,15.68
2016-08-14T03:20:27.468Z,15.77
2016-08-14T03:21:27.381Z,15.75
2016-08-14T03:22:27.393Z,15.74
2016-08-14T03:23:27.393Z,15.62
2016-08-14T03:24:27.459Z,15.62
2016-08-14T03:25:27.314Z,15.68
2016-08-14T03:26:27.384Z,15.63
2016-08-14T03:27:27.405Z,15.8
2016-08-14T03:28:27.489Z,15.63
2016-08-14T03:29:27.478Z,15.77
2016-08-14T03:30:27.332Z,15.74
2016-08-14T03:31:27.419Z,15.7
2016-08-14T03:32:27.345Z,15.62
2016-08-14T03:33:27.416Z,15.83
2016-08-14T03:34:27.421Z,15.73
2016-08-14T03:35:27.421Z,15.63
2016-08-14T03:36:27.425Z,15.74
2016-08-14T03:37:27.351Z,15.75
2016-08-14T03:38:27.429Z,15.77
2016-08-14T03:39:27.632Z,15.8
2016-08-14T03:40:27.444Z,15.8
2016-08-14T03:41:27.524Z,15.77
2016-08-14T03:42:27.441Z,15.75
2016-08-14T03:43:27.442Z,15.73
2016-08-14T03:44:27.443Z,15.81
2016-08-14T03:45:27.447Z,15.73
2016-08-14T03:46:27.449Z,15.84
2016-08-14T03:47:27.469Z,15.83
2016-08-14T03:51:53.241Z,15.75
2016-08-14T03:52:53.261Z,15.75
2016-08-14T03:53:53.168Z,15.8
2016-08-14T03:54:53.187Z,15.83
2016-08-14T03:55:53.194Z,15.86
2016-08-14T03:56:53.127Z,15.84
2016-08-14T03:57:53.184Z,15.73
2016-08-14T03:58:53.196Z,15.77
2016-08-14T03:59:53.127Z,15.78
2016-08-14T04:00:53.193Z,15.83
2016-08-14T04:01:53.206Z,15.84
2016-08-14T04:02:53.362Z,15.81
2016-08-14T04:03:53.126Z,15.75
2016-08-14T04:04:53.199Z,15.86
2016-08-14T04:05:53.211Z,15.75
2016-08-14T04:06:53.225Z,15.78
2016-08-14T04:07:53.227Z,15.81
2016-08-14T04:08:53.213Z,15.77
2016-08-14T04:09:53.151Z,15.78
2016-08-14T04:10:53.224Z,15.78
2016-08-14T04:11:53.318Z,15.8
2016-08-14T04:12:53.239Z,15.77
2016-08-14T04:13:53.320Z,15.78
2016-08-14T04:14:53.174Z,15.88
2016-08-14T04:15:53.242Z,15.77
2016-08-14T04:16:53.250Z,15.81
2016-08-14T04:17:53.172Z,15.83
2016-08-14T04:18:53.379Z,15.88
2016-08-14T04:19:53.181Z,15.86
2016-08-14T04:20:53.255Z,15.89
2016-08-14T04:21:53.326Z,15.86
2016-08-14T04:22:53.264Z,15.89
2016-08-14T04:23:53.271Z,15.91
2016-08-14T04:24:53.205Z,15.93
2016-08-14T04:25:53.285Z,15.91
2016-08-14T04:26:53.267Z,15.91
2016-08-14T04:27:53.366Z,15.96
2016-08-14T04:28:53.215Z,15.89
2016-08-14T04:29:53.282Z,15.95
2016-08-14T04:30:53.209Z,15.96
2016-08-14T04:31:53.315Z,15.92
2016-08-14T04:32:53.304Z,15.93
2016-08-14T04:33:53.304Z,15.93
2016-08-14T04:34:53.405Z,15.95
2016-08-14T04:35:53.234Z,15.96
2016-08-14T04:36:53.322Z,16.08
2016-08-14T04:37:53.322Z,15.96
2016-08-14T04:38:53.237Z,16.02
2016-08-14T04:39:53.428Z,16.06
2016-08-14T04:40:53.235Z,16.04
2016-08-14T04:41:53.314Z,16.14
2016-08-14T04:42:53.395Z,16.04
2016-08-14T04:43:53.257Z,16.06
2016-08-14T04:44:53.404Z,16.13
2016-08-14T04:45:53.328Z,16.08
2016-08-14T04:46:53.263Z,16.17
2016-08-14T04:47:53.260Z,16.11
2016-08-14T04:48:53.261Z,16.16
2016-08-14T04:49:53.338Z,16.16
2016-08-14T04:50:53.418Z,16.13
2016-08-14T04:51:53.378Z,16.08
2016-08-14T04:52:53.378Z,16.1
2016-08-14T04:53:53.281Z,16.11
2016-08-14T04:54:53.370Z,16.14
2016-08-14T04:55:53.449Z,16.27
2016-08-14T04:56:53.362Z,16.26
2016-08-14T04:57:53.388Z,16.18
2016-08-14T04:58:53.289Z,16.14
2016-08-14T04:59:53.295Z,16.18
2016-08-14T05:00:53.390Z,16.16
2016-08-14T05:01:53.380Z,16.26
2016-08-14T05:02:53.338Z,16.07
2016-08-14T05:03:53.389Z,16.22
2016-08-14T05:04:53.320Z,16.21
2016-08-14T05:05:53.321Z,16.18
2016-08-14T05:06:53.455Z,16.3
2016-08-14T05:07:53.398Z,16.16
2016-08-14T05:08:53.401Z,16.29
2016-08-14T05:09:53.393Z,16.18
2016-08-14T05:10:53.356Z,16.26
2016-08-14T05:11:53.434Z,16.21
2016-08-14T05:12:53.421Z,16.22
2016-08-14T05:13:53.422Z,16.21
2016-08-14T05:14:53.490Z,16.18
2016-08-14T05:15:53.428Z,16.25
2016-08-14T05:16:53.351Z,16.27
2016-08-14T05:17:53.433Z,16.32
2016-08-14T05:18:53.517Z,16.3
2016-08-14T05:19:53.445Z,16.37
2016-08-14T05:20:53.510Z,16.37
2016-08-14T05:21:53.352Z,16.36
2016-08-14T05:22:53.446Z,16.3
2016-08-14T05:23:53.438Z,16.42
2016-08-14T05:24:53.433Z,16.37
2016-08-14T05:25:53.453Z,16.44
2016-08-14T05:26:53.521Z,16.45
2016-08-14T05:27:53.366Z,16.39
2016-08-14T05:28:53.453Z,16.42
2016-08-14T05:29:53.388Z,16.45
2016-08-14T05:30:53.450Z,16.39
2016-08-14T05:31:53.473Z,16.49
2016-08-14T05:32:53.465Z,16.48
2016-08-14T05:33:53.490Z,16.58
2016-08-14T05:34:53.471Z,16.55
2016-08-14T05:35:53.479Z,16.52
2016-08-14T05:36:53.475Z,16.57
2016-08-14T05:37:53.478Z,16.49
2016-08-14T05:38:53.499Z,16.57
2016-08-14T05:39:53.608Z,16.59
2016-08-14T05:40:53.504Z,16.62
2016-08-14T05:41:53.486Z,16.72
2016-08-14T05:42:53.561Z,16.72
2016-08-14T05:43:53.574Z,16.55
2016-08-14T05:44:53.512Z,16.67
2016-08-14T05:45:53.497Z,16.69
2016-08-14T05:46:53.423Z,16.67
2016-08-14T05:47:53.508Z,16.69
2016-08-14T05:48:53.586Z,16.76
2016-08-14T05:49:53.450Z,16.66
2016-08-14T05:50:53.528Z,16.77
2016-08-14T05:51:53.452Z,16.77
2016-08-14T05:52:53.584Z,16.82
2016-08-14T05:53:53.445Z,16.77
2016-08-14T05:54:53.520Z,16.84
2016-08-14T05:55:53.640Z,16.87
2016-08-14T05:56:53.615Z,16.84
2016-08-14T05:57:53.463Z,16.85
2016-08-14T05:58:53.535Z,16.99
2016-08-14T05:59:53.543Z,16.91
2016-08-14T06:00:53.469Z,16.94
2016-08-14T06:01:53.557Z,17.02
2016-08-14T06:02:53.561Z,16.91
2016-08-14T06:03:53.481Z,17.03
2016-08-14T06:04:53.569Z,17.09
2016-08-14T06:05:53.646Z,17.1
2016-08-14T06:06:53.634Z,17.07
2016-08-14T06:07:53.560Z,17.17
2016-08-14T06:08:53.660Z,17.24
2016-08-14T06:09:53.647Z,17.13
2016-08-14T06:10:53.660Z,17.21
2016-08-14T06:11:53.653Z,17.24
2016-08-14T06:12:53.581Z,17.3
2016-08-14T06:13:53.572Z,17.27
2016-08-14T06:14:53.585Z,17.31
2016-08-14T06:15:53.677Z,17.45
2016-08-14T06:16:53.600Z,17.4
2016-08-14T06:17:53.619Z,17.46
2016-08-14T06:18:53.666Z,17.54
2016-08-14T06:19:53.681Z,17.55
2016-08-14T06:20:53.612Z,17.57
2016-08-14T06:21:53.612Z,17.62
2016-08-14T06:22:53.609Z,17.65
2016-08-14T06:23:53.615Z,17.77
2016-08-14T06:24:53.537Z,17.74
2016-08-14T06:25:53.693Z,17.76
2016-08-14T06:26:53.688Z,17.73
2016-08-14T06:27:53.552Z,17.77
2016-08-14T06:28:53.715Z,17.8
2016-08-14T06:29:53.646Z,17.77
2016-08-14T06:30:53.630Z,17.8
2016-08-14T06:31:53.636Z,17.74
2016-08-14T06:32:53.636Z,17.87
2016-08-14T06:33:53.567Z,17.96
2016-08-14T06:34:53.643Z,17.81
2016-08-14T06:35:53.583Z,17.8
2016-08-14T06:36:53.655Z,17.83
2016-08-14T06:37:53.733Z,17.92
2016-08-14T06:38:53.736Z,17.96
2016-08-14T06:39:53.670Z,17.96
2016-08-14T06:40:53.658Z,18.06
2016-08-14T06:41:53.591Z,18.06
2016-08-14T06:42:53.675Z,18.08
2016-08-14T06:43:53.741Z,18.17
2016-08-14T06:44:53.671Z,18.2
2016-08-14T06:45:53.696Z,18.2
2016-08-14T06:46:53.623Z,18.13
2016-08-14T06:47:53.630Z,18.11
2016-08-14T06:48:53.690Z,18.14
2016-08-14T06:49:53.726Z,18.11
2016-08-14T06:50:53.707Z,18.03
2016-08-14T06:51:53.701Z,18.19
2016-08-14T06:52:53.692Z,18.06
2016-08-14T06:53:53.774Z,18.02
2016-08-14T06:54:53.695Z,18.05
2016-08-14T06:55:53.793Z,18.1
2016-08-14T06:56:53.695Z,18.06
2016-08-14T06:57:53.723Z,18.03
2016-08-14T06:58:53.641Z,18.13
2016-08-14T06:59:53.634Z,18.19
2016-08-14T07:00:53.710Z,18.26
2016-08-14T07:01:53.664Z,18.21
2016-08-14T07:02:53.808Z,18.27
2016-08-14T07:03:53.740Z,18.26
2016-08-14T07:04:53.737Z,18.27
2016-08-14T07:05:53.754Z,18.47
2016-08-14T07:06:53.821Z,18.39
2016-08-14T07:07:53.747Z,18.49
2016-08-14T07:08:53.671Z,18.36
2016-08-14T07:09:53.733Z,18.45
2016-08-14T07:10:53.831Z,18.56
2016-08-14T07:11:53.829Z,18.6
2016-08-14T07:12:53.749Z,18.66
2016-08-14T07:13:53.777Z,18.81
2016-08-14T07:14:53.755Z,18.94
2016-08-14T07:15:53.762Z,18.75
2016-08-14T07:16:53.690Z,18.76
2016-08-14T07:17:53.852Z,18.81
2016-08-14T07:18:53.791Z,18.91
2016-08-14T07:19:53.770Z,19.13
2016-08-14T07:20:53.771Z,19.28
2016-08-14T07:21:53.861Z,19.35
2016-08-14T07:22:53.710Z,19.47
2016-08-14T07:23:53.862Z,19.5
2016-08-14T07:24:53.722Z,19.4
2016-08-14T07:25:53.789Z,19.49
2016-08-14T07:26:53.888Z,19.55
2016-08-14T07:27:53.870Z,19.55
2016-08-14T07:28:53.737Z,19.63
2016-08-14T07:29:53.876Z,19.5
2016-08-14T07:30:53.802Z,19.65
2016-08-14T07:31:53.749Z,19.79
2016-08-14T07:32:53.822Z,20.08
2016-08-14T07:33:53.824Z,20.16
2016-08-14T07:34:53.895Z,20.37
2016-08-14T07:35:53.818Z,20.56
2016-08-14T07:36:53.838Z,20.81
2016-08-14T07:37:53.833Z,20.94
2016-08-14T07:38:53.835Z,20.96
2016-08-14T07:39:53.779Z,21
2016-08-14T07:40:54.065Z,20.93
2016-08-14T07:41:53.851Z,20.9
2016-08-14T07:42:53.782Z,21.09
2016-08-14T07:43:53.843Z,21.11
2016-08-14T07:44:53.780Z,21.11
2016-08-14T07:45:53.854Z,21.3
2016-08-14T07:46:53.869Z,21.31
2016-08-14T07:47:53.788Z,21.08
2016-08-14T07:48:53.803Z,21.09
2016-08-14T07:49:53.874Z,21.13
2016-08-14T07:50:53.934Z,21.19
2016-08-14T07:51:53.948Z,21.12
2016-08-14T07:52:53.866Z,21.09
2016-08-14T07:53:53.944Z,21.09
2016-08-14T07:54:53.803Z,21.04
2016-08-14T07:55:53.897Z,20.83
2016-08-14T07:56:53.951Z,20.61
2016-08-14T07:57:53.814Z,20.64
2016-08-14T07:58:53.963Z,20.76
2016-08-14T07:59:53.975Z,20.72
2016-08-14T08:00:53.892Z,20.81
2016-08-14T08:01:53.834Z,20.83
2016-08-14T08:02:53.979Z,20.85
2016-08-14T08:03:53.903Z,20.94
2016-08-14T08:04:53.995Z,20.86
2016-08-14T08:05:54.005Z,20.9
2016-08-14T08:06:53.914Z,20.86
2016-08-14T08:07:53.881Z,21.18
2016-08-14T08:08:53.924Z,21.41
2016-08-14T08:09:53.934Z,21.71
2016-08-14T08:10:53.937Z,21.41
2016-08-14T08:11:53.952Z,21.25
2016-08-14T08:12:53.971Z,21.36
2016-08-14T08:13:53.869Z,21.19
2016-08-14T08:14:53.947Z,21.56
2016-08-14T08:15:53.957Z,21.51
2016-08-14T08:16:53.975Z,21.67
2016-08-14T08:17:53.954Z,21.74
2016-08-14T08:18:54.556Z,21.86
2016-08-14T08:19:53.966Z,22.12
2016-08-14T08:20:53.976Z,21.86
2016-08-14T08:21:54.004Z,21.85
2016-08-14T08:22:53.975Z,21.94
2016-08-14T08:23:53.894Z,22.12
2016-08-14T08:24:53.975Z,22.31
2016-08-14T08:25:53.972Z,22.3
2016-08-14T08:26:53.966Z,22.11
2016-08-14T08:27:53.967Z,21.97
2016-08-14T08:28:53.980Z,21.99
2016-08-14T08:29:53.906Z,21.97
2016-08-14T08:30:54.070Z,22.07
2016-08-14T08:31:54.057Z,21.94
2016-08-14T08:32:54.054Z,22
2016-08-14T08:33:53.913Z,22.09
2016-08-14T08:34:54.054Z,22.07
2016-08-14T08:35:54.061Z,21.85
2016-08-14T08:36:54.075Z,21.82
2016-08-14T08:37:54.076Z,21.94
2016-08-14T08:38:54.001Z,21.66
2016-08-14T08:39:53.997Z,21.83
2016-08-14T08:40:54.142Z,21.89
2016-08-14T08:41:53.939Z,21.71
2016-08-14T08:42:54.035Z,21.67
2016-08-14T08:43:54.092Z,21.52
2016-08-14T08:44:53.957Z,21.89
2016-08-14T08:45:53.955Z,22.24
2016-08-14T08:46:54.027Z,22.79
2016-08-14T08:47:54.035Z,22.82
2016-08-14T08:48:54.115Z,23.15
2016-08-14T08:49:54.112Z,23.34
2016-08-14T08:50:54.127Z,23.19
2016-08-14T08:51:54.044Z,22.92
2016-08-14T08:52:54.062Z,22.73
2016-08-14T08:53:54.124Z,22.39
2016-08-14T08:54:54.057Z,22.41
2016-08-14T08:55:54.067Z,22.27
2016-08-14T08:56:54.142Z,22.45
2016-08-14T08:57:53.996Z,22.69
2016-08-14T08:58:54.075Z,22.84
2016-08-14T08:59:54.076Z,22.91
2016-08-14T09:00:53.985Z,22.89
2016-08-14T09:01:54.084Z,22.89
2016-08-14T09:02:54.070Z,23.26
2016-08-14T09:03:54.091Z,23.01
2016-08-14T09:04:54.006Z,23.37
2016-08-14T09:05:54.083Z,23.74
2016-08-14T09:06:54.160Z,23.97
2016-08-14T09:07:54.094Z,23.87
2016-08-14T09:08:54.163Z,23.28
2016-08-14T09:09:54.107Z,23.14
2016-08-14T09:10:54.102Z,23.28
2016-08-14T09:11:54.100Z,23.67
2016-08-14T09:12:54.096Z,24.03
2016-08-14T09:13:54.121Z,24.14
2016-08-14T09:14:54.194Z,23.94
2016-08-14T09:15:54.212Z,23.6
2016-08-14T09:16:54.038Z,23.26
2016-08-14T09:17:54.194Z,23.34
2016-08-14T09:18:54.209Z,23.14
2016-08-14T09:19:54.059Z,22.94
2016-08-14T09:20:54.215Z,23.21
2016-08-14T09:21:54.081Z,23.12
2016-08-14T09:22:54.094Z,23.34
2016-08-14T09:23:54.056Z,23.64
2016-08-14T09:24:54.071Z,23.96
2016-08-14T09:25:54.140Z,24.52
2016-08-14T09:26:54.228Z,24.96
2016-08-14T09:27:54.219Z,25.12
2016-08-14T09:28:54.145Z,25.19
2016-08-14T09:29:54.157Z,25.09
2016-08-14T09:30:54.164Z,24.77
2016-08-14T09:31:54.254Z,24.48
2016-08-14T09:32:54.161Z,24.32
2016-08-14T09:33:54.101Z,24.29
2016-08-14T09:34:54.165Z,24.7
2016-08-14T09:35:54.158Z,25.01
2016-08-14T09:36:54.246Z,25.01
2016-08-14T09:37:54.179Z,24.77
2016-08-14T09:38:54.265Z,24.9
2016-08-14T09:39:54.174Z,25.01
2016-08-14T09:40:54.281Z,24.83
2016-08-14T09:41:54.189Z,25.07
2016-08-14T09:42:54.194Z,25.14
2016-08-14T09:43:54.212Z,25.12
2016-08-14T09:44:54.136Z,25.2
2016-08-14T09:45:54.193Z,25.11
2016-08-14T09:46:54.123Z,25.37
2016-08-14T09:47:54.191Z,25.11
2016-08-14T09:48:54.127Z,25.14
2016-08-14T09:49:54.299Z,25.51
2016-08-14T09:50:54.220Z,26
2016-08-14T09:51:54.237Z,26.22
2016-08-14T09:52:54.297Z,25.96
2016-08-14T09:53:54.222Z,25.93
2016-08-14T09:54:54.148Z,25.7
2016-08-14T09:55:54.225Z,25.29
2016-08-14T09:56:54.301Z,25.19
2016-08-14T09:57:54.247Z,24.66
2016-08-14T09:58:54.306Z,25.02
2016-08-14T09:59:54.189Z,25.12
2016-08-14T10:00:54.319Z,24.9
2016-08-14T10:01:54.251Z,24.64
2016-08-14T10:02:54.253Z,24.42
2016-08-14T10:03:54.178Z,24.37
2016-08-14T10:04:54.182Z,24.42
2016-08-14T10:05:54.262Z,24.21
2016-08-14T10:06:54.337Z,24.32
2016-08-14T10:07:54.338Z,24.24
2016-08-14T10:08:54.351Z,24.27
2016-08-14T10:09:54.356Z,24.42
2016-08-14T10:10:54.205Z,24.8
2016-08-14T10:11:54.220Z,24.93
2016-08-14T10:12:54.201Z,25.01
2016-08-14T10:13:54.219Z,25.08
2016-08-14T10:14:54.216Z,25.41
2016-08-14T10:15:54.299Z,25.86
2016-08-14T10:16:54.210Z,26.06
2016-08-14T10:17:54.296Z,26.03
2016-08-14T10:18:54.386Z,26.11
2016-08-14T10:19:54.413Z,26.27
2016-08-14T10:20:54.310Z,26.16
2016-08-14T10:21:54.321Z,25.33
2016-08-14T10:22:54.386Z,24.58
2016-08-14T10:23:54.386Z,24.87
2016-08-14T10:24:54.316Z,25.15
2016-08-14T10:25:54.307Z,25.41
2016-08-14T10:26:54.393Z,25.14
2016-08-14T10:27:54.386Z,25.51
2016-08-14T10:28:54.328Z,25.45
2016-08-14T10:29:54.416Z,25.48
2016-08-14T10:30:54.252Z,25.7
2016-08-14T10:31:54.418Z,25.91
2016-08-14T10:32:54.270Z,26.26
2016-08-14T10:33:54.345Z,26.68
2016-08-14T10:34:54.354Z,26.75
2016-08-14T10:35:54.266Z,26.11
2016-08-14T10:36:54.425Z,25.51
2016-08-14T10:37:54.349Z,25.44
2016-08-14T10:38:54.432Z,25.44
2016-08-14T10:39:54.364Z,25.52
2016-08-14T10:40:54.288Z,25.63
2016-08-14T10:41:54.493Z,25.49
2016-08-14T10:42:54.375Z,25.01
2016-08-14T10:43:54.449Z,25.01
2016-08-14T10:44:54.415Z,24.94
2016-08-14T10:45:54.462Z,25.05
2016-08-14T10:46:54.316Z,24.87
2016-08-14T10:47:54.395Z,24.64
2016-08-14T10:48:54.394Z,24.7
2016-08-14T10:49:54.449Z,24.7
2016-08-14T10:50:54.416Z,24.92
2016-08-14T10:51:54.394Z,25.05
2016-08-14T10:52:54.409Z,25.15
2016-08-14T10:53:54.406Z,25
2016-08-14T10:54:54.403Z,25
2016-08-14T10:55:54.400Z,25.01
2016-08-14T10:56:54.490Z,25.17
2016-08-14T10:57:54.416Z,25.04
2016-08-14T10:58:54.504Z,25
2016-08-14T10:59:54.358Z,24.52
2016-08-14T11:00:54.413Z,24.55
2016-08-14T11:01:54.515Z,24.26
2016-08-14T11:02:54.425Z,24.26
2016-08-14T11:03:54.363Z,24.09
2016-08-14T11:04:54.519Z,24.08
2016-08-14T11:05:54.515Z,24.33
2016-08-14T11:06:54.512Z,24.14
2016-08-14T11:07:54.374Z,24.11
2016-08-14T11:08:54.458Z,23.71
2016-08-14T11:09:54.449Z,23.52
2016-08-14T11:10:54.546Z,23.28
2016-08-14T11:11:54.387Z,23.19
2016-08-14T11:12:54.585Z,23.38
2016-08-14T11:13:54.389Z,23.29
2016-08-14T11:14:54.550Z,23.29
2016-08-14T11:15:54.478Z,23.48
2016-08-14T11:16:54.390Z,23.63
2016-08-14T11:17:54.500Z,23.38
2016-08-14T11:18:54.477Z,23.5
2016-08-14T11:19:54.488Z,23.45
2016-08-14T11:20:54.478Z,23.56
2016-08-14T11:21:54.411Z,23.38
2016-08-14T11:22:54.419Z,23.47
2016-08-14T11:23:54.484Z,23.57
2016-08-14T11:24:54.499Z,23.53
2016-08-14T11:25:54.489Z,23.4
2016-08-14T11:26:54.508Z,23.19
2016-08-14T11:27:54.508Z,23
2016-08-14T11:28:54.436Z,23.07
2016-08-14T11:29:54.513Z,23.14
2016-08-14T11:30:54.583Z,22.96
2016-08-14T11:31:54.532Z,22.94
2016-08-14T11:32:54.530Z,22.85
2016-08-14T11:33:54.532Z,22.7
2016-08-14T11:34:54.521Z,22.66
2016-08-14T11:35:54.538Z,22.7
2016-08-14T11:36:54.458Z,22.78
2016-08-14T11:37:54.535Z,22.81
2016-08-14T11:38:54.542Z,22.84
2016-08-14T11:39:54.545Z,22.66
2016-08-14T11:40:54.614Z,22.59
2016-08-14T11:41:54.830Z,22.52
2016-08-14T11:42:54.548Z,22.41
2016-08-14T11:43:54.554Z,22.22
2016-08-14T11:44:54.481Z,22.49
2016-08-14T11:45:54.622Z,22.48
2016-08-14T11:46:54.622Z,22.64
2016-08-14T11:47:54.557Z,22.66
2016-08-14T11:48:54.638Z,22.82
2016-08-14T11:49:54.574Z,22.75
2016-08-14T11:50:54.581Z,22.78
2016-08-14T11:51:54.583Z,22.85
2016-08-14T11:52:54.576Z,22.81
2016-08-14T11:53:54.513Z,22.92
2016-08-14T11:54:54.587Z,23.07
2016-08-14T11:55:54.586Z,23.24
2016-08-14T11:56:54.578Z,23.45
2016-08-14T11:57:54.597Z,23.56
2016-08-14T11:58:54.681Z,23.67
2016-08-14T11:59:54.527Z,23.62
2016-08-14T12:00:54.610Z,23.75
2016-08-14T12:01:54.606Z,23.85
2016-08-14T12:02:54.597Z,23.84
2016-08-14T12:03:54.602Z,23.6
2016-08-14T12:04:54.620Z,23.62
2016-08-14T12:05:54.617Z,23.67
2016-08-14T12:06:54.698Z,23.71
2016-08-14T12:07:54.542Z,23.55
2016-08-14T12:08:54.546Z,23.48
2016-08-14T12:09:54.627Z,23.29
2016-08-14T12:10:54.635Z,23.18
2016-08-14T12:11:54.645Z,23.18
2016-08-14T12:12:54.636Z,23.26
2016-08-14T12:13:54.633Z,23.19
2016-08-14T12:14:54.645Z,22.96
2016-08-14T12:15:54.572Z,22.82
2016-08-14T12:16:54.658Z,22.79
2016-08-14T12:17:55.320Z,22.97
2016-08-14T12:18:54.650Z,22.86
2016-08-14T12:19:54.665Z,22.97
2016-08-14T12:20:54.662Z,23.03
2016-08-14T12:21:54.744Z,23.22
2016-08-14T12:22:54.602Z,23.38
2016-08-14T12:23:54.599Z,23.53
2016-08-14T12:24:54.700Z,23.6
2016-08-14T12:25:54.763Z,23.67
2016-08-14T12:26:54.684Z,23.6
2016-08-14T12:27:54.748Z,23.63
2016-08-14T12:28:54.754Z,23.47
2016-08-14T12:29:54.761Z,23.32
2016-08-14T12:30:54.753Z,23.35
2016-08-14T12:31:54.631Z,23.41
2016-08-14T12:32:54.774Z,23.29
2016-08-14T12:33:54.694Z,23.32
2016-08-14T12:34:54.775Z,23.45
2016-08-14T12:35:54.788Z,23.47
2016-08-14T12:36:54.716Z,23.53
2016-08-14T12:37:54.638Z,23.4
2016-08-14T12:38:54.639Z,23.34
2016-08-14T12:39:54.641Z,23.6
2016-08-14T12:40:54.798Z,23.35
2016-08-14T12:41:54.723Z,23.53
2016-08-14T12:42:54.708Z,23.56
2016-08-14T12:43:54.725Z,23.5
2016-08-14T12:44:54.797Z,23.53
2016-08-14T12:45:54.750Z,23.5
2016-08-14T12:46:54.659Z,23.37
2016-08-14T12:47:54.734Z,23.26
2016-08-14T12:48:54.691Z,23.35
2016-08-14T12:49:54.663Z,23.45
2016-08-14T12:50:54.821Z,23.66
2016-08-14T12:51:54.761Z,23.79
2016-08-14T12:52:54.814Z,24.03
2016-08-14T12:53:54.753Z,24.11
2016-08-14T12:54:54.839Z,24.29
2016-08-14T12:55:54.828Z,24.26
2016-08-14T12:56:54.760Z,24.42
2016-08-14T12:57:54.776Z,24.46
2016-08-14T12:58:54.695Z,24.74